Latest Weather Observations for Yarrawonga

IDN60801

Issued at 10:35 pm EST Thursday 17 April 2014 (issued every 30 minutes, with the page automatically refreshed every 10 minutes)

About weather observations | Map of weather stations | Latest weather observations for NSW | Other Formats
Station Details ID: 081124 Name: YARRAWONGA Lat: -36.03 Lon: 146.03 Height: 128.9 m
Data from the previous 72 hours. | See also: Recent months at Yarrawonga
Date/Time
EST
Temp
°C
App
Temp
°C
Dew
Point
Rel
Hum
%
Delta-T
°C
Wind Press
QNH
hPa
Press
MSL
hPa
Rain
since 9 am
mm
Dir
 
Spd
km/h
Gust
km/h
Spd
kts
Gust
kts
17/10:30pm 11.6 11.7 10.2 91 0.7 NNE 0 0 0 0 1019.4 - 0.0
17/10:00pm 12.2 12.5 10.8 91 0.7 E 0 0 0 0 1019.7 1019.6 0.0
17/09:30pm 12.6 13.1 11.5 93 0.6 CALM 0 0 0 0 1019.8 - 0.0
17/09:00pm 12.2 12.4 10.4 89 0.9 CALM 0 0 0 0 1019.7 1019.6 0.0
17/08:30pm 13.0 13.0 11.2 89 1.0 S 2 2 1 1 1019.8 - 0.0
17/08:00pm 13.5 13.5 11.2 86 1.2 S 2 2 1 1 1019.8 1019.7 0.0
17/07:30pm 14.7 15.0 10.9 78 2.0 CALM 0 0 0 0 1019.6 - 0.0
17/07:00pm 16.3 15.9 11.0 71 2.8 WNW 4 6 2 3 1019.5 1019.4 0.0
17/06:30pm 17.2 16.4 11.0 67 3.4 W 6 6 3 3 1019.3 - 0.0
17/06:00pm 17.9 17.7 11.7 67 3.4 W 4 6 2 3 1019.0 1018.8 0.0
17/05:30pm 19.4 18.4 10.9 58 4.7 W 7 9 4 5 1019.0 - 0.0
17/05:00pm 21.0 19.1 10.5 51 5.7 WSW 11 15 6 8 1018.9 1018.7 0.0
17/04:30pm 22.2 21.8 9.7 45 6.8 WSW 2 6 1 3 1018.9 - 0.0
17/04:00pm 22.1 21.0 9.9 46 6.6 SW 6 9 3 5 1019.0 1018.8 0.0
17/03:30pm 22.2 20.8 9.7 45 6.8 SW 7 11 4 6 1019.1 - 0.0
17/03:00pm 22.5 20.7 9.6 44 7.0 WSW 9 15 5 8 1019.4 1019.3 0.0
17/02:30pm 22.6 21.4 9.7 44 7.0 SSW 6 11 3 6 1019.6 - 0.0
17/02:00pm 21.9 20.0 9.1 44 6.9 SSW 9 15 5 8 1019.8 1019.7 0.0
17/01:30pm 22.0 20.9 9.9 46 6.6 W 6 13 3 7 1019.9 - 0.0
17/01:00pm 21.6 19.9 9.8 47 6.4 SW 9 17 5 9 1020.3 1020.2 0.0
17/12:30pm 20.7 19.5 9.6 49 6.0 SW 6 11 3 6 1020.7 - 0.0
17/12:00pm 20.4 19.2 10.2 52 5.5 SW 7 17 4 9 1021.1 1021.0 0.0
17/11:30am 19.8 19.5 11.3 58 4.7 WNW 4 7 2 4 1021.3 - 0.0
17/11:00am 19.0 19.0 11.1 60 4.3 N 2 4 1 2 1021.6 1021.5 0.0
17/10:30am 18.3 18.4 11.4 64 3.8 WNW 2 6 1 3 1021.7 - 0.0
17/10:00am 17.8 18.0 11.8 68 3.3 N 2 6 1 3 1021.6 1021.5 0.0
17/09:30am 17.1 17.9 12.6 75 2.5 CALM 0 0 0 0 1021.7 - 0.0
17/09:00am 15.2 15.5 12.3 83 1.6 E 2 4 1 2 1021.6 1021.5 0.0
17/08:30am 13.2 13.3 11.4 89 1.0 SE 2 4 1 2 1021.7 - 0.0
17/08:00am 12.0 12.5 11.7 98 0.2 CALM 0 0 0 0 1021.5 1021.4 0.0
17/07:30am 10.0 10.0 9.7 98 0.2 CALM 0 0 0 0 1021.2 - 0.0
17/07:00am 8.1 7.6 7.8 98 0.1 CALM 0 0 0 0 1021.0 1020.9 0.0
17/06:30am 7.7 7.1 7.4 98 0.1 CALM 0 2 0 1 1020.6 - 0.0
17/06:00am 8.1 7.2 7.8 98 0.1 SE 2 4 1 2 1020.2 1020.1 0.0
17/05:30am 7.9 7.3 7.6 98 0.1 CALM 0 0 0 0 1020.1 - 0.0
17/05:00am 8.0 7.5 7.7 98 0.1 CALM 0 0 0 0 1019.9 1019.8 0.0
17/04:30am 8.4 7.2 8.1 98 0.1 SW 4 6 2 3 1019.7 - 0.0
17/04:00am 8.9 8.6 8.6 98 0.1 CALM 0 0 0 0 1019.4 1019.3 0.0
17/03:30am 8.6 8.2 8.2 97 0.2 CALM 0 0 0 0 1019.2 - 0.0
17/03:00am 9.0 8.7 8.6 97 0.2 SE 0 0 0 0 1019.1 1019.0 0.0
17/02:30am 9.4 8.8 8.8 96 0.3 SE 2 4 1 2 1018.9 - 0.0
17/02:00am 9.8 8.4 8.9 94 0.4 E 6 7 3 4 1019.0 1018.8 0.0
17/01:30am 10.0 9.1 9.2 95 0.4 E 4 6 2 3 1019.1 - 0.0
17/01:00am 10.5 9.7 9.6 94 0.5 E 4 6 2 3 1019.2 1019.1 0.0
17/12:30am 11.1 10.4 10.2 94 0.5 SSE 4 4 2 2 1019.3 - 0.0
17/12:00am 11.6 11.4 10.5 93 0.6 WSW 2 4 1 2 1019.7 1019.6 0.0
 
Date/Time
EST
Temp
°C
App
Temp
°C
Dew
Point
Rel
Hum
%
Delta-T
°C
Wind Press
QNH
hPa
Press
MSL
hPa
Rain
since 9 am
mm
Dir
 
Spd
km/h
Gust
km/h
Spd
kts
Gust
kts
16/11:30pm 11.7 11.2 10.8 94 0.5 WSW 4 4 2 2 1019.8 - 0.0
16/11:00pm 12.0 11.5 10.9 93 0.6 W 4 6 2 3 1020.0 1019.9 0.0
16/10:30pm 12.0 11.5 10.7 92 0.7 W 4 4 2 2 1020.1 - 0.0
16/10:00pm 12.5 12.7 10.7 89 0.9 CALM 0 0 0 0 1020.2 1020.1 0.0
16/09:30pm 12.8 12.7 10.7 87 1.1 W 2 6 1 3 1020.3 - 0.0
16/09:00pm 13.9 13.0 11.2 84 1.4 WSW 7 7 4 4 1020.2 1020.1 0.0
16/08:30pm 14.2 13.3 11.4 83 1.5 WSW 7 7 4 4 1020.0 - 0.0
16/08:00pm 14.3 13.6 11.3 82 1.6 WSW 6 7 3 4 1019.8 1019.7 0.0
16/07:30pm 14.5 14.4 12.0 85 1.4 SW 4 6 2 3 1019.6 - 0.0
16/07:00pm 14.9 14.7 11.9 82 1.6 SSW 4 4 2 2 1019.5 1019.4 0.0
16/06:30pm 16.0 15.4 11.6 75 2.4 SW 6 6 3 3 1019.3 - 0.0
16/06:00pm 17.1 16.5 11.8 71 2.9 SSW 6 7 3 4 1019.0 1018.8 0.0
16/05:30pm 18.3 17.5 11.6 65 3.7 SW 7 7 4 4 1018.8 - 0.0
16/05:00pm 19.1 17.9 10.4 57 4.7 SSW 7 9 4 5 1018.7 1018.5 0.0
16/04:30pm 19.9 18.5 9.5 51 5.6 WSW 7 13 4 7 1018.6 - 0.0
16/04:00pm 21.2 19.4 9.4 47 6.3 W 9 15 5 8 1018.6 1018.4 0.0
16/03:30pm 21.2 18.9 9.1 46 6.5 W 11 17 6 9 1018.7 - 0.0
16/03:00pm 21.5 20.1 9.7 47 6.4 WSW 7 15 4 8 1018.9 1018.7 0.0
16/02:30pm 21.3 20.0 9.2 46 6.5 W 6 13 3 7 1019.0 - 0.0
16/02:00pm 21.6 19.4 10.7 50 6.0 W 13 20 7 11 1019.3 1019.2 0.0
16/01:30pm 20.6 18.5 9.8 50 5.8 W 11 15 6 8 1019.3 - 0.0
16/01:00pm 20.9 19.1 9.5 48 6.1 NW 9 17 5 9 1019.6 1019.5 0.0
16/12:30pm 20.9 19.1 10.7 52 5.6 WNW 11 17 6 9 1020.1 - 0.0
16/12:00pm 19.6 17.6 10.0 54 5.2 WNW 11 17 6 9 1020.5 1020.4 0.0
16/11:30am 19.4 18.0 10.9 58 4.7 NNW 9 15 5 8 1020.8 - 0.0
16/11:00am 18.9 17.3 11.5 62 4.1 NNW 11 17 6 9 1021.0 1020.9 0.0
16/10:30am 18.3 17.8 12.1 67 3.4 N 6 11 3 6 1021.2 - 0.0
16/10:00am 16.6 14.9 11.3 71 2.9 N 11 17 6 9 1021.3 1021.2 0.0
16/09:30am 15.7 14.3 10.9 73 2.6 N 9 13 5 7 1021.4 - 0.0
16/09:00am 15.0 13.9 10.8 76 2.2 NE 7 11 4 6 1021.4 1021.3 0.0
16/08:30am 14.4 13.5 11.4 82 1.6 ENE 7 11 4 6 1021.4 - 0.0
16/08:00am 13.0 12.5 10.7 86 1.2 E 4 6 2 3 1021.3 1021.2 0.0
16/07:30am 10.9 10.3 10.3 96 0.3 ESE 4 6 2 3 1021.0 - 0.0
16/07:00am 8.9 7.4 8.3 96 0.3 ESE 6 7 3 4 1020.7 1020.6 0.0
16/06:30am 8.7 6.9 8.1 96 0.3 E 7 9 4 5 1020.5 - 0.0
16/06:00am 8.9 6.7 8.0 94 0.4 E 9 9 5 5 1020.5 1020.4 0.0
16/05:30am 9.4 7.7 8.3 93 0.5 ENE 7 9 4 5 1020.3 - 0.0
16/05:00am 9.4 8.8 8.9 97 0.2 N 2 4 1 2 1020.1 1020.0 0.0
16/04:30am 9.4 8.0 8.8 96 0.3 ESE 6 7 3 4 1019.8 - 0.0
16/04:00am 9.3 9.1 9.0 98 0.1 CALM 0 0 0 0 1019.6 1019.5 0.0
16/03:30am 8.8 8.1 8.5 98 0.1 E 2 4 1 2 1019.4 - 0.0
16/03:00am 9.3 9.1 9.0 98 0.1 CALM 0 0 0 0 1019.6 1019.5 0.0
16/02:30am 9.5 8.5 9.0 97 0.2 E 4 6 2 3 1019.7 - 0.0
16/02:00am 9.7 8.5 9.4 98 0.1 SSE 6 6 3 3 1019.9 1019.8 0.0
16/01:30am 9.8 9.7 9.5 98 0.2 CALM 0 0 0 0 1020.3 - 0.0
16/01:00am 10.1 10.1 9.8 98 0.2 CALM 0 0 0 0 1020.4 1020.3 0.0
16/12:30am 9.7 9.5 8.9 95 0.4 CALM 0 0 0 0 1020.5 - 0.0
16/12:00am 9.9 9.2 8.7 92 0.6 WSW 2 4 1 2 1020.6 1020.5 0.0
 
Date/Time
EST
Temp
°C
App
Temp
°C
Dew
Point
Rel
Hum
%
Delta-T
°C
Wind Press
QNH
hPa
Press
MSL
hPa
Rain
since 9 am
mm
Dir
 
Spd
km/h
Gust
km/h
Spd
kts
Gust
kts
15/11:30pm 10.9 10.4 9.3 90 0.8 WSW 2 4 1 2 1020.7 - 0.0
15/11:00pm 11.6 10.9 10.2 91 0.7 WSW 4 4 2 2 1020.9 1020.8 0.0
15/10:30pm 11.7 11.0 9.9 89 0.9 WSW 4 6 2 3 1021.0 - 0.0
15/10:00pm 12.1 11.4 10.0 87 1.1 WSW 4 6 2 3 1021.0 1020.9 0.0
15/09:30pm 12.4 11.4 10.3 87 1.1 W 6 6 3 3 1021.1 - 0.0
15/09:00pm 13.0 11.8 10.4 84 1.4 W 7 9 4 5 1020.9 1020.8 0.0
15/08:30pm 12.9 11.8 10.6 86 1.2 W 7 7 4 4 1020.7 - 0.0
15/08:00pm 13.7 12.9 11.0 84 1.4 W 6 7 3 4 1020.4 1020.3 0.0
15/07:30pm 14.0 13.1 10.6 80 1.8 W 6 6 3 3 1020.4 - 0.0
15/07:00pm 14.4 13.4 11.0 80 1.8 SW 7 9 4 5 1020.3 1020.2 0.0
15/06:30pm 15.3 14.3 11.1 76 2.3 SW 7 7 4 4 1019.9 - 0.0
15/06:00pm 16.8 16.0 10.9 68 3.2 SW 6 7 3 4 1019.9 1019.8 0.0
15/05:30pm 19.0 17.9 10.0 56 4.8 SSW 6 7 3 4 1019.8 - 0.0
15/05:00pm 20.4 18.7 8.4 46 6.3 SSW 7 9 4 5 1019.8 1019.7 0.0
15/04:30pm 20.9 19.2 8.5 45 6.5 SW 7 15 4 8 1019.7 - 0.0
15/04:00pm 21.4 19.9 8.3 43 6.9 SW 6 15 3 8 1019.7 1019.6 0.0
15/03:30pm 21.5 19.9 8.1 42 7.0 SW 6 7 3 4 1019.8 - 0.0
15/03:00pm 21.7 20.9 9.6 46 6.5 WSW 4 15 2 8 1019.9 1019.8 0.0
15/02:30pm 21.5 20.1 8.7 44 6.8 SW 6 11 3 6 1020.0 - 0.0
15/02:00pm 21.2 20.1 8.5 44 6.7 S 4 9 2 5 1020.0 1019.9 0.0
15/01:30pm 20.9 19.4 8.5 45 6.5 S 6 13 3 7 1020.3 - 0.0
15/01:00pm 20.7 19.3 9.0 47 6.2 SW 6 11 3 6 1020.5 1020.4 0.0
15/12:30pm 20.3 18.8 8.6 47 6.2 SSW 6 11 3 6 1021.1 - 0.0
15/12:00pm 20.1 18.8 9.1 49 5.8 S 6 11 3 6 1021.5 1021.4 0.0
15/11:30am 19.3 18.2 8.3 49 5.7 SSE 4 7 2 4 1022.1 - 0.0
15/11:00am 18.9 17.6 9.1 53 5.1 E 6 9 3 5 1022.3 1022.2 0.0
15/10:30am 17.3 15.6 8.2 55 4.7 SE 7 11 4 6 1022.4 - 0.0
15/10:00am 16.7 14.7 8.7 59 4.1 ESE 9 13 5 7 1022.7 1022.6 0.0
15/09:30am 15.9 14.4 9.3 65 3.4 ESE 7 13 4 7 1022.8 - 0.0
15/09:00am 14.7 13.1 8.6 67 3.1 ESE 7 11 4 6 1022.7 1022.6 0.0
15/08:30am 13.5 12.1 8.8 73 2.4 ESE 6 9 3 5 1022.6 - 0.0
15/08:00am 12.3 10.8 8.6 78 1.8 SE 6 9 3 5 1022.4 1022.3 0.0
15/07:30am 10.6 9.0 7.8 83 1.4 ESE 6 7 3 4 1022.0 - 0.0
15/07:00am 8.5 6.5 7.0 90 0.7 ESE 7 9 4 5 1021.8 1021.7 0.0
15/06:30am 8.1 6.0 6.6 90 0.7 ESE 7 9 4 5 1021.5 - 0.0
15/06:00am 8.2 6.3 6.7 90 0.7 SE 6 7 3 4 1021.5 1021.4 0.0
15/05:30am 8.6 6.7 6.7 88 0.9 SE 6 7 3 4 1021.3 - 0.0
15/05:00am 8.9 7.2 7.4 90 0.7 SE 6 7 3 4 1021.2 1021.1 0.0
15/04:30am 8.7 7.3 7.2 90 0.7 ESE 4 6 2 3 1021.2 - 0.0
15/04:00am 9.0 8.0 7.5 90 0.7 ESE 2 6 1 3 1021.0 1020.9 0.0
15/03:30am 9.2 7.4 7.0 86 1.0 ESE 6 7 3 4 1020.8 - 0.0
15/03:00am 10.2 8.4 7.3 82 1.4 SE 6 7 3 4 1020.5 1020.4 0.0
15/02:30am 9.4 8.1 7.8 90 0.8 SE 4 4 2 2 1020.7 - 0.0
15/02:00am 9.7 8.4 7.5 86 1.1 SE 4 6 2 3 1020.9 1020.8 0.0
15/01:30am 10.7 9.0 7.6 81 1.5 SSE 6 7 3 4 1020.9 - 0.0
15/01:00am 10.7 9.0 7.6 81 1.5 SE 6 7 3 4 1020.9 1020.8 0.0
15/12:30am 11.3 9.5 8.0 80 1.6 SE 7 11 4 6 1020.8 - 0.0
15/12:00am 11.0 9.4 8.1 82 1.4 SE 6 9 3 5 1020.9 1020.8 0.0
 
Date/Time
EST
Temp
°C
App
Temp
°C
Dew
Point
Rel
Hum
%
Delta-T
°C
Wind Press
QNH
hPa
Press
MSL
hPa
Rain
since 9 am
mm
Dir
 
Spd
km/h
Gust
km/h
Spd
kts
Gust
kts
14/11:30pm 11.2 10.3 9.3 88 1.0 SE 4 6 2 3 1020.8 - 0.0
14/11:00pm 11.7 10.5 9.4 86 1.2 SSE 6 7 3 4 1020.8 1020.7 0.0

Other Formats:

Comma delimited format used in spreadsheet applications
http://www.bom.gov.au/fwo/IDN60801/IDN60801.94862.axf

JavaScript Object Notation format (JSON) in row-major order
http://www.bom.gov.au/fwo/IDN60801/IDN60801.94862.json